2018 Dick Inukai 5K Logo

2018 Dick Inukai 5K
Dicks Auto Group, Hillsboro, OR
May 20th, 2018

Huber Timing Home

Finishers:153
Male:64
Female:89

Email timing@hubertiming.com with any questions or corrections. Please include your bib number if you have it.

Search: Division:
Place Bib Name Gender Age City State Chip Time Chip Pace Gender Place Age Group Age Group Place Time to Start Gun Time
1 72 DEVIN HENDERLING M 17 HILLSBORO OR 00:19:58 06:26 1 of 64 M 19 and Under 1 of 18 00:00:04 00:20:02
2 106 KEKOA MORTON M 37 HILLSBORO OR 00:20:53 06:44 2 of 64 M 35-39 1 of 7 00:00:03 00:20:56
3 79 RANDI INUKAI F 29 HILLSBORO OR 00:21:55 07:04 1 of 89 F 25-29 1 of 4 00:00:04 00:21:59
4 19 SHANE CENTER M 48 MERIDIAN ID 00:22:02 07:06 3 of 64 M 45-49 1 of 13 00:00:03 00:22:05
5 168 CRAIG BREWER M 57 PORTLAND OR 00:22:04 07:07 4 of 64 M 55-59 1 of 5 00:00:04 00:22:08
6 111 KATHY O'HARA F 53 BEND OR 00:23:04 07:26 2 of 89 F 50-54 1 of 7 00:00:04 00:23:08
7 99 RUBY MAKI F 11 PORTLAND OR 00:24:40 07:57 3 of 89 F 19 and Under 1 of 28 00:00:02 00:24:42
8 98 AMY MAKI F 45 PORTLAND OR 00:24:45 07:59 4 of 89 F 45-49 1 of 10 00:00:03 00:24:48
9 68 WENDY HANDWERGER F 57 LAKE OSWEGO OR 00:25:17 08:09 5 of 89 F 55-59 1 of 5 00:00:07 00:25:24
10 166 DAVE BASHAW M 57 SALEM OR 00:25:22 08:11 5 of 64 M 55-59 2 of 5 00:00:04 00:25:26
11 4 JASON BATE M 41 HILLSBORO OR 00:25:32 08:14 6 of 64 M 40-44 1 of 6 00:00:09 00:25:41
12 74 LINDSEY HOLCOMB F 34 PORTLAND OR 00:26:27 08:32 6 of 89 F 30-34 1 of 2 00:00:08 00:26:35
13 131 DAVID ROARK M 49 LAKE OSWEGO OR 00:26:31 08:33 7 of 64 M 45-49 2 of 13 00:00:11 00:26:42
14 65 ILIAS GJINO M 49 YAKIMA WA 00:26:32 08:33 8 of 64 M 45-49 3 of 13 00:00:04 00:26:36
15 147 RICHARD TILLERY M 37 BEAVERTON OR 00:27:32 08:53 9 of 64 M 35-39 2 of 7 00:00:16 00:27:48
16 123 ABBIE REDDICK F 14 HAPPY VALLEY OR 00:27:46 08:57 7 of 89 F 19 and Under 2 of 28 00:00:11 00:27:57
17 87 KYLE JONES M 41 PORTLAND OR 00:27:55 09:00 10 of 64 M 40-44 2 of 6 00:00:14 00:28:09
18 165 MATT WEISHOFF M 54 NORTH PLAINS OR 00:28:18 09:08 11 of 64 M 50-54 1 of 4 00:00:13 00:28:31
19 124 HANNAH REDDICK F 14 HAPPY VALLEY OR 00:28:32 09:12 8 of 89 F 19 and Under 3 of 28 00:00:11 00:28:43
20 32 BODHI COELHO M 14 PORTLAND OR 00:28:54 09:19 12 of 64 M 19 and Under 2 of 18 00:00:03 00:28:57
21 141 IVAN SINGLETON M 45 BEAVERTON OR 00:29:03 09:22 13 of 64 M 45-49 4 of 13 00:00:13 00:29:16
22 101 SYDNEY MCCORNACK F 9 PORTLAND OR 00:29:06 09:23 9 of 89 F 19 and Under 4 of 28 00:00:04 00:29:10
23 100 MCCUNE MCCORNACK M 15 PORTLAND OR 00:29:07 09:23 14 of 64 M 19 and Under 3 of 18 00:00:03 00:29:10
24 34 OLIVER COELHO M 10 PORTLAND OR 00:29:34 09:32 15 of 64 M 19 and Under 4 of 18 00:00:10 00:29:44
25 33 JACK COELHO M 50 PORTLAND OR 00:29:35 09:32 16 of 64 M 50-54 2 of 4 00:00:10 00:29:45
26 83 CHAD JOHNSON M 38 PORTLAND OR 00:30:36 09:52 17 of 64 M 35-39 3 of 7 00:00:09 00:30:45
27 84 THOMAS JOHNSON M 9 PORTLAND OR 00:30:38 09:52 18 of 64 M 19 and Under 5 of 18 00:00:07 00:30:45
28 46 SARA DEL BALZO F 26 PORTLAND OR 00:30:47 09:56 10 of 89 F 25-29 2 of 4 00:00:17 00:31:04
29 182 VICTOR MALDONADO M 42 PORTLAND OR 00:30:51 09:57 19 of 64 M 40-44 3 of 6 00:00:03 00:30:54
30 48 CADENCE DONNELL M 9 PORTLAND OR 00:30:51 09:57 20 of 64 M 19 and Under 6 of 18 00:00:03 00:30:54
31 130 ADRIENNE ROARK F 47 BEAVERTON OR 00:30:53 09:57 11 of 89 F 45-49 2 of 10 00:00:09 00:31:02
32 142 JENNIFER SINGLETON F 39 BEAVERTON OR 00:31:11 10:03 12 of 89 F 35-39 1 of 5 00:00:16 00:31:27
33 167 ANITA SILVA F 35 FOREST GROVE OR 00:31:48 10:15 13 of 89 F 35-39 2 of 5 00:00:17 00:32:05
34 169 SHERYL STEWART F 45 SAINT HELENS OR 00:31:53 10:17 14 of 89 F 45-49 3 of 10 00:00:15 00:32:08
35 71 APRIL HENDERLING F 44 HILLSBORO OR 00:32:10 10:22 15 of 89 F 40-44 1 of 13 00:00:09 00:32:19
36 73 MACKENZIE HENDERLING F 16 HILLSBORO OR 00:32:11 10:23 16 of 89 F 19 and Under 5 of 28 00:00:09 00:32:20
37 6 MERCY BERNAL F 53 BEAVERTON OR 00:32:12 10:23 17 of 89 F 50-54 2 of 7 00:00:29 00:32:41
38 7 OSWALDO BERNAL M 53 BEAVERTON OR 00:32:26 10:27 21 of 64 M 50-54 3 of 4 00:00:29 00:32:55
39 119 JAMES PETERSON M 38 PORTLAND OR 00:33:01 10:39 22 of 64 M 35-39 4 of 7 00:00:18 00:33:19
40 118 ELI PETERSON M 10 PORTLAND OR 00:33:06 10:40 23 of 64 M 19 and Under 7 of 18 00:00:11 00:33:17
41 126 REBECCA REDDICK F 44 HAPPY VALLEY OR 00:33:23 10:46 18 of 89 F 40-44 2 of 13 00:00:11 00:33:34
42 125 NATHAN REDDICK M 44 HAPPY VALLEY OR 00:33:24 10:46 24 of 64 M 40-44 4 of 6 00:00:12 00:33:36
43 86 MIKE JOHNSTON M 66 PORTLAND OR 00:33:49 10:54 25 of 64 M 65-69 1 of 2 00:00:11 00:34:00
44 62 KYLEE GAZZIGLI F 46 PORTLAND OR 00:34:14 11:02 19 of 89 F 45-49 4 of 10 00:00:06 00:34:20
45 144 PAULETTE STINSON F 69 PORTLAND OR 00:34:15 11:03 20 of 89 F 65-69 1 of 5 00:00:17 00:34:32
46 45 CARL DEL BALZO M 59 PORTLAND OR 00:34:30 11:07 26 of 64 M 55-59 3 of 5 00:00:18 00:34:48
47 69 ANDREW HARMON M 33 SHERWOOD OR 00:34:40 11:11 27 of 64 M 30-34 1 of 2 00:00:28 00:35:08
48 170 MERIDIAN NABER F 16 HILLSBORO OR 00:35:04 11:18 21 of 89 F 19 and Under 6 of 28 00:00:12 00:35:16
49 61 DANICA GAZZIGLI F 24 PORTLAND OR 00:35:18 11:23 22 of 89 F 20-24 1 of 8 00:00:05 00:35:23
50 105 MADISON MCINNIS-SANTMYER F 14 BEAVERTON OR 00:35:19 11:23 23 of 89 F 19 and Under 7 of 28 00:00:03 00:35:22
51 178 BRIANNA GALLAGHER F 30 WEST LINN OR 00:35:21 11:24 24 of 89 F 30-34 2 of 2 00:00:19 00:35:40
52 158 HANNAH WIRKKALA F 7 HILLSBORO OR 00:35:22 11:24 25 of 89 F 19 and Under 8 of 28 00:00:17 00:35:39
53 2 MADOC ALLBRITTON F 9 PORTLAND OR 00:36:23 11:44 26 of 89 F 19 and Under 9 of 28 00:00:08 00:36:31
54 153 PASCALE VAN OAST F 10 PORTLAND OR 00:36:24 11:44 27 of 89 F 19 and Under 10 of 28 00:00:08 00:36:32
55 50 FERN ELLEDGE F 47 PORTLAND OR 00:36:24 11:44 28 of 89 F 45-49 5 of 10 00:00:08 00:36:32
56 64 GERRI GJINO F 55 YAKIMA WA 00:36:36 11:48 29 of 89 F 55-59 2 of 5 00:00:06 00:36:42
57 63 ANDREW GJINO M 16 YAKIMA WA 00:36:36 11:48 28 of 64 M 19 and Under 8 of 18 00:00:07 00:36:43
58 66 NIKO GJINO M 21 YAKIMA WA 00:36:37 11:48 29 of 64 M 20-24 1 of 2 00:00:05 00:36:42
59 59 TERESA FRANCIS F 50 MILTON WA 00:36:42 11:50 30 of 89 F 50-54 3 of 7 00:00:24 00:37:06
60 163 MATTHEW TAKIZAWA M 8 HILLSBORO OR 00:36:55 11:54 30 of 64 M 19 and Under 9 of 18 00:00:27 00:37:22
61 11 ADRIAN BUTTKUS M 24 PORTLAND OR 00:37:12 12:00 31 of 64 M 20-24 2 of 2 00:00:06 00:37:18
62 67 MARK HANDWERGER M 52 LAKE OSWEGO OR 00:37:21 12:03 32 of 64 M 50-54 4 of 4 00:00:11 00:37:32
63 42 ANNA DEGROOT F 10 PORTLAND OR 00:37:40 12:09 31 of 89 F 19 and Under 11 of 28 00:00:26 00:38:06
64 43 CASEY DEGROOT M 46 PORTLAND OR 00:37:42 12:09 33 of 64 M 45-49 5 of 13 00:00:25 00:38:07
65 112 ABBY OLSON F 36 PORTLAND OR 00:37:50 12:12 32 of 89 F 35-39 3 of 5 00:00:04 00:37:54
66 51 SUTTON ELLIOTT F 11 PORTLAND OR 00:37:50 12:12 33 of 89 F 19 and Under 12 of 28 00:00:04 00:37:54
67 120 CHRISTIAN PHILLIPS M 25 NORTH PLAINS OR 00:37:59 12:15 34 of 64 M 25-29 1 of 2 00:00:25 00:38:24
68 41 MARY GAGE DAVIS F 43 PORTLAND OR 00:38:04 12:16 34 of 89 F 40-44 3 of 13 00:00:08 00:38:12
69 40 LOIS DAVIS F 9 PORTLAND OR 00:38:05 12:17 35 of 89 F 19 and Under 13 of 28 00:00:06 00:38:11
70 107 KEITH NABER M 49 HILLSBORO OR 00:38:13 12:19 35 of 64 M 45-49 6 of 13 00:00:12 00:38:25
71 9 AL BRANDT M 75 HILLSBORO OR 00:38:13 12:19 36 of 64 M 75-79 1 of 1 00:00:12 00:38:25
72 161 SARAH WIRKKALA F 9 HILLSBORO OR 00:38:24 12:23 36 of 89 F 19 and Under 14 of 28 00:00:18 00:38:42
73 160 RANDY WIRKKALA M 42 HILLSBORO OR 00:38:25 12:23 37 of 64 M 40-44 5 of 6 00:00:17 00:38:42
74 134 SEBASTIAN RUSTANBEGOVIC M 10 PORTLAND OR 00:38:41 12:28 38 of 64 M 19 and Under 10 of 18 00:00:19 00:39:00
75 133 ADI RUSTANBEGOVIC M 45 PORTLAND OR 00:38:41 12:28 39 of 64 M 45-49 7 of 13 00:00:19 00:39:00
76 146 MARK TAKIZAWA M 55 HILLSBORO OR 00:38:51 12:31 40 of 64 M 55-59 4 of 5 00:00:24 00:39:15
77 139 AZALEIGHA SAVOIE F 10 BEAVERTON OR 00:39:33 12:45 37 of 89 F 19 and Under 15 of 28 00:00:06 00:39:39
78 94 JACOBA LAWSON F 35 PORTLAND OR 00:39:34 12:46 38 of 89 F 35-39 4 of 5 00:00:05 00:39:39
79 55 TARRANT FARR M 17 BEAVERTON OR 00:40:12 12:58 41 of 64 M 19 and Under 11 of 18 00:00:15 00:40:27
80 135 THEODORE RUSTANBEGOVIC M 6 PORTLAND OR 00:40:54 13:11 42 of 64 M 19 and Under 12 of 18 00:00:10 00:41:04
81 95 MARIA LAZARESCU F 41 PORTLAND OR 00:40:54 13:11 39 of 89 F 40-44 4 of 13 00:00:10 00:41:04
82 210 MAHIREN TEPOXTECO F 11 HILLSBORO OR 00:41:28 13:22 40 of 89 F 19 and Under 16 of 28 00:00:28 00:41:56
83 159 JOSHUA WIRKKALA M 4 HILLSBORO OR 00:41:28 13:22 43 of 64 M 19 and Under 13 of 18 00:00:18 00:41:46
84 157 CHRISTINE WIRKKALA F 44 HILLSBORO OR 00:41:28 13:22 41 of 89 F 40-44 5 of 13 00:00:18 00:41:46
85 29 ELLA CLEEK F 11 PORTLAND OR 00:41:30 13:23 42 of 89 F 19 and Under 17 of 28 00:00:09 00:41:39
86 211 ROBERTO BERMEJO M 28 CORNELIUS OR 00:41:30 13:23 44 of 64 M 25-29 2 of 2 00:00:27 00:41:57
87 109 HOLLIE NINE F 40 PORTLAND OR 00:41:30 13:23 43 of 89 F 40-44 6 of 13 00:00:10 00:41:40
88 10 ELENA BUTLER F 29 PORTLAND OR 00:41:39 13:26 44 of 89 F 25-29 3 of 4 00:00:20 00:41:59
89 93 DOUG KIM M 31 PORTLAND OR 00:41:40 13:26 45 of 64 M 30-34 2 of 2 00:00:19 00:41:59
90 155 TERESE WAGNER F 48 PORTLAND OR 00:42:52 13:49 45 of 89 F 45-49 6 of 10 00:00:11 00:43:03
91 49 JIM DOYLE M 49 PORTLAND OR 00:43:55 14:10 46 of 64 M 45-49 8 of 13 00:00:22 00:44:17
92 122 JESSICA RAWSON F 49 PORTLAND OR 00:43:55 14:10 46 of 89 F 45-49 7 of 10 00:00:22 00:44:17
93 39 JULIE CUFFEE F 67 TUMWATER WA 00:44:00 14:11 47 of 89 F 65-69 2 of 5 00:00:09 00:44:09
94 31 LAUNA CLEEK F 9 PORTLAND OR 00:44:18 14:17 48 of 89 F 19 and Under 18 of 28 00:00:11 00:44:29
95 30 EMILY CLEEK F 42 PORTLAND OR 00:44:18 14:17 49 of 89 F 40-44 7 of 13 00:00:12 00:44:30
96 176 KATRINA KAHL F 43 PORTLAND OR 00:46:09 14:53 50 of 89 F 40-44 8 of 13 00:00:20 00:46:29
97 89 RICK KEBBE M 66 PORTLAND OR 00:47:06 15:11 47 of 64 M 65-69 2 of 2 00:00:21 00:47:27
98 103 LILY MCINNIS F 13 BEAVERTON OR 00:47:19 15:16 51 of 89 F 19 and Under 19 of 28 00:00:04 00:47:23
99 102 CHEYENNE MCINNIS F 8 BEAVERTON OR 00:47:21 15:16 52 of 89 F 19 and Under 20 of 28 00:00:02 00:47:23
100 171 WINTRE NIES F 16 BEAVERTON OR 00:48:13 15:33 53 of 89 F 19 and Under 21 of 28 00:00:16 00:48:29
101 129 MADDIE REMENSPERGER F 14 PORTLAND OR 00:48:15 15:33 54 of 89 F 19 and Under 22 of 28 00:00:16 00:48:31
102 91 KATIE KILBOURNE F 10 PORTLAND OR 00:48:27 15:37 55 of 89 F 19 and Under 23 of 28 00:00:15 00:48:42
103 110 MICHAEL NORRIS M 38 BEAVERTON OR 00:48:54 15:46 48 of 64 M 35-39 5 of 7 00:00:04 00:48:58
104 127 GREG REMENSPERGER M 61 PORTLAND OR 00:49:05 15:50 49 of 64 M 60-64 1 of 2 00:00:21 00:49:26
105 128 JODI REMENSPERGER F 51 BEAVERTON OR 00:49:05 15:50 56 of 89 F 50-54 4 of 7 00:00:20 00:49:25
106 58 POLLY FOSTER F 42 HILLSBORO OR 00:50:35 16:19 57 of 89 F 40-44 9 of 13 00:00:13 00:50:48
107 60 BRIAN GALLAWAY M 46 BEAVERTON OR 00:50:36 16:19 50 of 64 M 45-49 9 of 13 00:00:11 00:50:47
108 13 JACOB BYBEE M 35 HILLSBORO OR 00:51:30 16:36 51 of 64 M 35-39 6 of 7 00:00:25 00:51:55
109 12 ISAAC BYBEE M 5 HILLSBORO OR 00:51:57 16:45 52 of 64 M 19 and Under 14 of 18 00:00:30 00:52:27
110 14 MICAH BYBEE M 3 HILLSBORO OR 00:52:00 16:46 53 of 64 M 19 and Under 15 of 18 00:00:29 00:52:29
111 15 RASHELLE BYBEE F 35 HILLSBORO OR 00:52:03 16:47 58 of 89 F 35-39 5 of 5 00:00:24 00:52:27
112 149 JUSTIN TRASK M 14 ALOHA OR 00:52:44 17:00 54 of 64 M 19 and Under 16 of 18 00:00:05 00:52:49
113 104 OWEN MCINNIS M 11 BEAVERTON OR 00:53:17 17:11 55 of 64 M 19 and Under 17 of 18 00:00:02 00:53:19
114 114 DAVIS OLSON M 16 BEAVERTON OR 00:53:42 17:19 56 of 64 M 19 and Under 18 of 18 00:00:13 00:53:55
115 115 MADELINE OLSON F 13 BEAVERTON OR 00:53:42 17:19 59 of 89 F 19 and Under 24 of 28 00:00:14 00:53:56
116 117 LINDA PALMER F 71 BONNEY LAKE WA 00:53:52 17:22 60 of 89 F 70-74 1 of 1 00:00:24 00:54:16
117 164 HEATHER HUBER F 40 BEAVERTON OR 00:54:02 17:25 61 of 89 F 40-44 10 of 13 00:00:15 00:54:17
118 85 DENISE JOHNSTON F 61 PORTLAND OR 00:55:13 17:48 62 of 89 F 60-64 1 of 1 00:00:32 00:55:45
119 116 MONICA OLSON F 45 BEAVERTON OR 00:55:14 17:49 63 of 89 F 45-49 8 of 10 00:00:30 00:55:44
120 92 MARTIN KILBOURNE M 47 PORTLAND OR 00:55:30 17:54 57 of 64 M 45-49 10 of 13 00:00:15 00:55:45
121 179 STEVE GENTRY M 47 CINCINNATI OH 00:55:42 17:58 58 of 64 M 45-49 11 of 13 00:00:23 00:56:05
122 180 TYRICE WALKER M 45 WEST CHESTER OH 00:55:43 17:58 59 of 64 M 45-49 12 of 13 00:00:23 00:56:06
123 184 KRISTIN BURNEY F 47 ALOHA OR 00:56:23 18:11 64 of 89 F 45-49 9 of 10 00:00:19 00:56:42
124 185 DEANNA JOYNER F 52 HILLSBORO OR 00:56:24 18:11 65 of 89 F 50-54 5 of 7 00:00:19 00:56:43
125 183 STEFFANIE JIMENEZ F 21 HILLSBORO OR 00:56:26 18:12 66 of 89 F 20-24 2 of 8 00:00:18 00:56:44
126 23 TEAL CHANDLER F 10 PORTLAND OR 00:56:36 18:15 67 of 89 F 19 and Under 25 of 28 00:00:09 00:56:45
127 21 HANNAH CHANDLER F 42 PORTLAND OR 00:56:38 18:16 68 of 89 F 40-44 11 of 13 00:00:08 00:56:46
128 47 KAREN DELOFF F 59 BEAVERTON OR 00:56:39 18:16 69 of 89 F 55-59 3 of 5 00:00:10 00:56:49
129 148 DARCIE TRASK F 52 ALOHA OR 00:56:41 18:17 70 of 89 F 50-54 6 of 7 00:00:09 00:56:50
130 151 NICOLE TRASK F 23 ALOHA OR 00:56:41 18:17 71 of 89 F 20-24 3 of 8 00:00:10 00:56:51
131 138 CHANTHA SAU M 62 BEAVERTON OR 00:56:42 18:17 60 of 64 M 60-64 2 of 2 00:00:08 00:56:50
132 150 MELANIE TRASK F 20 ALOHA OR 00:56:44 18:18 72 of 89 F 20-24 4 of 8 00:00:07 00:56:51
133 8 CARLA BOLEEN F 56 HILLSBORO OR 00:56:46 18:18 73 of 89 F 55-59 4 of 5 00:00:27 00:57:13
134 186 LISA KAUFMANN F 56 HILLSBORO OR 00:56:46 18:18 74 of 89 F 55-59 5 of 5 00:00:25 00:57:11
135 17 PAM CARPENTER F 42 HILLSBORO OR 00:56:47 18:19 75 of 89 F 40-44 12 of 13 00:00:21 00:57:08
136 162 MICHAEL DESANTIS M 36 FOREST GROVE OR 00:56:48 18:19 61 of 64 M 35-39 7 of 7 00:00:21 00:57:09
137 22 ROWAN CHANDLER F 8 PORTLAND OR 00:57:02 18:24 76 of 89 F 19 and Under 26 of 28 00:00:09 00:57:11
138 156 MIJONET WILDING F 10 WILSONVILLE OR 00:57:06 18:25 77 of 89 F 19 and Under 27 of 28 00:00:07 00:57:13
139 16 MAUREN CAMPBELL F 27 PORTLAND OR 00:57:07 18:25 78 of 89 F 25-29 4 of 4 00:00:07 00:57:14
140 175 LEIGH ANN HIERONYMUS F 52 PORTLAND OR 00:57:10 18:26 79 of 89 F 50-54 7 of 7 00:01:44 00:58:54
141 54 ROBIN FARR M 49 BEAVERTON OR 00:57:23 18:30 62 of 64 M 45-49 13 of 13 00:00:17 00:57:40
142 52 HANNAH FARR F 20 BEAVERTON OR 00:57:25 18:31 80 of 89 F 20-24 5 of 8 00:00:16 00:57:41
143 53 MARIA FARR F 23 BEAVERTON OR 00:57:25 18:31 81 of 89 F 20-24 6 of 8 00:00:16 00:57:41
144 173 TELLY GINOS M 42 PORTLAND OR 00:58:49 18:58 63 of 64 M 40-44 6 of 6 00:00:06 00:58:55
145 88 DELBERT KAUFMANN M 59 HILLSBORO OR 00:58:56 19:00 64 of 64 M 55-59 5 of 5 00:00:27 00:59:23
146 108 FLO NEWTON MERLO F 67 HILLSBORO OR 00:58:57 19:01 82 of 89 F 65-69 3 of 5 00:00:27 00:59:24
147 90 MEGAN KELLEY F 45 PORTLAND OR 01:03:09 20:22 83 of 89 F 45-49 10 of 10 00:00:00 01:03:09
148 177 KIANA MCCOY F 23 BEAVERTON OR 01:05:15 21:03 84 of 89 F 20-24 7 of 8 00:00:17 01:05:32
149 35 CHEYENNE COLUCCI F 20 HILLSBORO OR 01:05:16 21:03 85 of 89 F 20-24 8 of 8 00:00:17 01:05:33
150 5 NANCY BECK F 66 BEAVERTON OR 01:05:50 21:14 86 of 89 F 65-69 4 of 5 00:00:27 01:06:17
151 57 CONNIE FOSTER F 68 LAKE OSWEGO OR 01:05:50 21:14 87 of 89 F 65-69 5 of 5 00:00:27 01:06:17
152 172 MELISSA FROMAN F 40 TUALATIN OR 01:07:10 21:40 88 of 89 F 40-44 13 of 13 00:00:10 01:07:20
153 174 LUCY FROMAN F 4 TUALATIN OR 01:07:10 21:40 89 of 89 F 19 and Under 28 of 28 00:00:10 01:07:20
Huber Timing